Time;durP1;ratioP1;P1;durP2;ratioP2;P2;SDS_P1;SDS_P2;PMS_P1;PMS_P2;Temp;Humidity;BMP_temperature;BMP_pressure;BME280_temperature;BME280_humidity;BME280_pressure;Samples;Min_cycle;Max_cycle;Signal;HPM_P1;HPM_P2
2022/10/24 00:00:00;;;;;;;14.45;11.02;;;12.70;99.90;;;;;;6295303;22;20242;-89
2022/10/24 00:02:28;;;;;;;15.07;9.65;;;12.70;99.90;;;;;;6293633;22;20237;-90
2022/10/24 00:04:57;;;;;;;12.48;10.25;;;12.80;99.90;;;;;;6288388;22;20201;-89
2022/10/24 00:07:27;;;;;;;14.48;10.45;;;13.00;99.90;;;;;;6289288;22;20182;-87
2022/10/24 00:09:57;;;;;;;12.00;10.45;;;13.00;99.90;;;;;;6288010;22;20205;-87
2022/10/24 00:12:24;;;;;;;13.20;10.30;;;12.90;99.90;;;;;;6259232;22;20183;-87
2022/10/24 00:14:51;;;;;;;13.50;11.38;;;13.00;99.90;;;;;;6262206;22;20175;-89
2022/10/24 00:17:20;;;;;;;14.45;10.63;;;13.00;99.90;;;;;;6286880;22;20194;-88
2022/10/24 00:19:48;;;;;;;13.48;10.45;;;13.00;99.90;;;;;;6260765;22;20245;-88
2022/10/24 00:22:16;;;;;;;13.27;9.20;;;13.00;99.90;;;;;;6259272;22;20183;-85
2022/10/24 00:24:44;;;;;;;14.15;11.75;;;12.90;99.90;;;;;;6286676;22;20171;-88
2022/10/24 00:27:12;;;;;;;17.08;11.43;;;12.90;99.90;;;;;;6260493;22;20171;-90
2022/10/24 00:29:40;;;;;;;12.95;10.48;;;12.80;99.90;;;;;;6286228;22;20183;-89
2022/10/24 00:50:57;;;;;;;12.65;11.20;;;13.40;99.90;;;;;;6216106;22;20218;-88
2022/10/24 00:53:30;;;;;;;12.90;11.60;;;13.40;99.90;;;;;;6270861;22;20170;-89
2022/10/24 00:56:01;;;;;;;12.10;10.90;;;13.60;99.90;;;;;;6260448;22;20175;-89
2022/10/24 00:58:31;;;;;;;16.02;12.32;;;13.30;99.90;;;;;;6285161;22;20246;-83
2022/10/24 01:00:58;;;;;;;17.23;10.77;;;13.20;99.90;;;;;;6283998;22;20340;-84
2022/10/24 01:03:27;;;;;;;12.15;10.70;;;12.90;99.90;;;;;;6259158;22;20187;-86
2022/10/24 01:06:24;;;;;;;16.33;12.65;;;13.00;99.90;;;;;;6286871;22;20175;-87
2022/10/24 01:09:26;;;;;;;12.30;10.15;;;13.00;99.90;;;;;;6260099;22;20179;-85
2022/10/24 01:12:14;;;;;;;14.00;12.63;;;13.00;99.90;;;;;;6259744;22;20455;-89
2022/10/24 01:14:46;;;;;;;16.75;11.98;;;12.90;99.90;;;;;;6286267;22;20681;-82
2022/10/24 01:17:53;;;;;;;15.20;10.63;;;12.70;99.90;;;;;;6259502;22;20182;-87
2022/10/24 01:20:36;;;;;;;14.50;11.90;;;12.70;99.90;;;;;;6286195;22;20324;-81
2022/10/24 01:23:40;;;;;;;18.80;11.50;;;12.60;99.90;;;;;;6288833;22;20167;-83
2022/10/24 01:26:40;;;;;;;14.30;12.50;;;12.60;99.90;;;;;;6285072;22;20178;-88
2022/10/24 01:29:31;;;;;;;12.30;10.60;;;12.60;99.90;;;;;;6286730;22;20193;-87
2022/10/24 01:32:18;;;;;;;13.40;10.52;;;12.60;99.90;;;;;;6261834;22;20179;-88
2022/10/24 01:35:08;;;;;;;14.25;11.90;;;12.60;99.90;;;;;;6288285;22;20623;-84
2022/10/24 01:38:04;;;;;;;13.05;11.38;;;12.70;99.90;;;;;;6294149;22;20205;-85
2022/10/24 01:40:56;;;;;;;14.85;12.20;;;12.60;99.90;;;;;;6265659;22;20221;-86
2022/10/24 01:43:34;;;;;;;13.88;11.05;;;12.70;99.90;;;;;;6274103;22;20729;-91
2022/10/24 01:46:07;;;;;;;14.38;11.60;;;12.70;99.90;;;;;;6204622;22;20195;-88
2022/10/24 01:48:45;;;;;;;16.25;12.40;;;12.80;99.90;;;;;;6232863;22;20194;-88
2022/10/24 01:51:21;;;;;;;15.60;12.35;;;12.70;99.90;;;;;;6250530;22;20199;-88
2022/10/24 01:59:30;;;;;;;17.10;13.05;;;12.70;99.90;;;;;;6243511;22;20218;-86
2022/10/24 02:02:19;;;;;;;15.60;11.95;;;12.70;99.90;;;;;;6282488;22;20190;-89
2022/10/24 02:07:26;;;;;;;16.65;11.57;;;12.80;99.90;;;;;;6208426;22;20569;-86
2022/10/24 02:15:25;;;;;;;13.63;11.55;;;12.90;99.90;;;;;;6228378;22;20238;-89
2022/10/24 02:18:04;;;;;;;15.10;11.18;;;12.80;99.90;;;;;;6261376;22;20225;-89
2022/10/24 02:23:54;;;;;;;11.43;10.23;;;12.80;99.90;;;;;;6202754;22;20252;-88
2022/10/24 02:40:31;;;;;;;13.25;10.73;;;12.80;99.90;;;;;;6240332;22;20236;-87
2022/10/24 02:43:04;;;;;;;11.70;10.60;;;13.00;99.90;;;;;;6242990;22;20171;-88
2022/10/24 02:45:35;;;;;;;13.68;11.00;;;12.90;99.90;;;;;;6293669;22;20167;-90
2022/10/24 02:48:08;;;;;;;10.85;9.18;;;12.80;99.90;;;;;;6295572;22;20181;-90
2022/10/24 02:50:39;;;;;;;13.95;11.00;;;12.70;99.90;;;;;;6269838;22;20144;-90
2022/10/24 02:53:13;;;;;;;13.60;10.15;;;12.70;99.90;;;;;;6297844;22;20182;-89
2022/10/24 02:55:52;;;;;;;11.80;10.60;;;12.90;99.90;;;;;;6255157;22;20186;-86
2022/10/24 02:58:31;;;;;;;13.68;10.05;;;13.20;99.90;;;;;;6285954;22;20195;-88
2022/10/24 03:09:08;;;;;;;10.35;8.50;;;13.20;99.90;;;;;;6220222;22;20201;-89
2022/10/24 03:52:17;;;;;;;8.13;6.80;;;13.50;99.90;;;;;;6267268;22;20609;-86
2022/10/24 03:54:55;;;;;;;7.38;6.65;;;13.70;99.90;;;;;;6239547;22;20193;-87
2022/10/24 03:57:24;;;;;;;7.90;5.82;;;13.70;99.90;;;;;;6232752;22;20233;-88
2022/10/24 04:00:08;;;;;;;7.38;6.35;;;13.60;99.90;;;;;;6269313;22;20207;-86
2022/10/24 04:02:50;;;;;;;8.32;6.38;;;13.60;99.90;;;;;;6289596;22;20217;-86
2022/10/24 04:05:18;;;;;;;6.20;5.60;;;13.60;99.90;;;;;;6240715;22;20178;-87
2022/10/24 04:07:47;;;;;;;8.82;6.10;;;13.40;99.90;;;;;;6291911;22;20179;-88
2022/10/24 04:10:15;;;;;;;6.35;5.50;;;13.40;99.90;;;;;;6239030;22;20213;-89
2022/10/24 04:12:42;;;;;;;9.50;6.68;;;13.50;99.90;;;;;;6238194;22;20198;-87
2022/10/24 04:15:09;;;;;;;6.63;5.57;;;13.60;99.90;;;;;;6261319;22;20225;-88
2022/10/24 04:17:37;;;;;;;7.47;5.55;;;13.80;99.90;;;;;;6287646;22;20182;-88
2022/10/24 04:20:05;;;;;;;7.70;6.40;;;13.90;99.90;;;;;;6259546;22;20191;-89
2022/10/24 04:22:37;;;;;;;5.63;5.03;;;14.00;99.90;;;;;;6263632;22;20163;-89
2022/10/24 04:25:05;;;;;;;12.25;6.38;;;14.10;99.90;;;;;;6289264;22;20183;-88
2022/10/24 04:27:32;;;;;;;5.90;4.68;;;14.00;99.90;;;;;;6265164;22;20205;-88
2022/10/24 04:29:59;;;;;;;7.32;5.53;;;14.10;99.90;;;;;;6259016;22;20272;-86
2022/10/24 04:32:26;;;;;;;6.32;5.72;;;14.20;99.90;;;;;;6279185;22;20199;-88
2022/10/24 04:34:56;;;;;;;6.95;5.90;;;14.20;99.90;;;;;;6297401;22;20182;-89
2022/10/24 04:37:28;;;;;;;7.60;5.50;;;14.20;99.90;;;;;;6296475;22;20202;-88
2022/10/24 04:39:55;;;;;;;8.50;4.70;;;14.10;99.90;;;;;;6269123;22;20228;-90
2022/10/24 04:42:24;;;;;;;5.03;4.07;;;14.00;99.90;;;;;;6266005;22;20185;-89
2022/10/24 04:44:51;;;;;;;6.05;5.50;;;13.90;99.90;;;;;;6289975;22;20171;-87
2022/10/24 04:47:22;;;;;;;5.15;4.65;;;13.80;99.90;;;;;;6240979;22;20186;-89
2022/10/24 04:49:49;;;;;;;6.30;5.70;;;13.90;99.90;;;;;;6244111;22;20179;-88
2022/10/24 04:54:55;;;;;;;5.32;4.75;;;14.20;99.90;;;;;;6239192;22;20186;-89
2022/10/24 04:59:57;;;;;;;6.47;5.50;;;14.30;99.90;;;;;;6198004;22;20207;-89
2022/10/24 05:02:28;;;;;;;6.00;4.78;;;14.40;99.90;;;;;;6248862;22;20252;-88
2022/10/24 05:05:02;;;;;;;7.40;6.65;;;14.40;99.90;;;;;;6246960;22;20471;-87
2022/10/24 05:07:32;;;;;;;6.00;5.40;;;14.20;99.90;;;;;;6298483;22;20220;-88
2022/10/24 05:10:07;;;;;;;5.90;5.30;;;14.20;99.90;;;;;;6290782;22;20481;-88
2022/10/24 05:12:35;;;;;;;4.47;4.18;;;14.20;99.90;;;;;;6242944;22;20224;-90
2022/10/24 05:15:06;;;;;;;7.35;5.20;;;14.40;99.90;;;;;;6274582;22;20166;-87
2022/10/24 05:17:34;;;;;;;5.13;4.57;;;14.40;99.90;;;;;;6268996;22;20175;-89
2022/10/24 05:20:18;;;;;;;7.78;5.55;;;14.40;99.90;;;;;;6266690;22;20182;-89
2022/10/24 05:22:47;;;;;;;6.85;5.63;;;14.20;99.90;;;;;;6269844;22;20199;-88
2022/10/24 05:25:29;;;;;;;7.15;4.90;;;14.10;99.90;;;;;;6294073;22;20162;-90
2022/10/24 05:28:13;;;;;;;7.03;5.13;;;14.10;99.90;;;;;;6262764;22;20254;-91
2022/10/24 05:33:32;;;;;;;8.88;5.82;;;14.30;99.90;;;;;;6206657;22;20195;-89
2022/10/24 05:36:14;;;;;;;5.78;5.18;;;14.40;99.90;;;;;;6245414;22;20182;-88
2022/10/24 05:38:42;;;;;;;5.95;5.10;;;14.40;99.90;;;;;;6294823;22;20233;-87
2022/10/24 05:41:13;;;;;;;5.35;4.50;;;14.50;99.90;;;;;;6292459;22;20210;-90
2022/10/24 05:43:41;;;;;;;4.47;4.10;;;14.60;99.90;;;;;;6291597;22;20206;-85
2022/10/24 05:46:09;;;;;;;6.97;5.45;;;14.50;99.90;;;;;;6240606;22;20185;-89
2022/10/24 05:48:46;;;;;;;10.52;5.82;;;14.50;99.90;;;;;;6279951;22;20189;-87
2022/10/24 06:15:39;;;;;;;6.35;4.43;;;14.70;99.90;;;;;;6183575;22;20190;-90
2022/10/24 06:37:03;;;;;;;5.47;4.97;;;15.00;99.90;;;;;;6201406;22;20175;-90
2022/10/24 06:39:44;;;;;;;8.70;4.80;;;14.70;99.90;;;;;;6278824;22;20602;-90
2022/10/24 06:42:12;;;;;;;6.60;5.45;;;14.70;99.90;;;;;;6254245;22;20356;-90
2022/10/24 06:44:42;;;;;;;8.50;4.63;;;14.60;99.90;;;;;;6255150;22;20143;-89
2022/10/24 06:47:09;;;;;;;6.35;5.00;;;14.60;99.90;;;;;;6278510;22;20407;-90
2022/10/24 06:49:39;;;;;;;5.47;4.80;;;14.90;99.90;;;;;;6278262;22;20171;-90
2022/10/24 06:52:06;;;;;;;6.38;5.80;;;15.10;99.90;;;;;;6253785;22;20378;-90
2022/10/24 07:27:01;;;;;;;6.57;4.87;;;15.90;99.90;;;;;;6254350;22;20391;-90
2022/10/24 08:18:45;;;;;;;4.13;3.60;;;18.10;99.90;;;;;;6207103;22;20472;-89
2022/10/24 09:06:54;;;;;;;7.37;3.30;;;19.40;99.90;;;;;;6225521;22;20452;-88
2022/10/24 09:14:41;;;;;;;8.63;4.10;;;19.60;99.90;;;;;;6294052;22;20475;-90
2022/10/24 09:17:21;;;;;;;4.00;3.57;;;19.70;99.90;;;;;;6276385;22;20365;-89
2022/10/24 09:19:55;;;;;;;5.20;2.33;;;19.80;99.90;;;;;;6276619;22;20374;-89
2022/10/24 09:22:28;;;;;;;4.20;2.70;;;19.90;99.90;;;;;;6239526;22;20408;-88
2022/10/24 09:27:39;;;;;;;3.60;3.30;;;19.90;99.90;;;;;;6283536;22;20541;-88
2022/10/24 09:30:18;;;;;;;3.10;2.23;;;20.00;99.90;;;;;;6273195;22;20366;-87
2022/10/24 09:32:45;;;;;;;2.87;2.27;;;20.00;99.90;;;;;;6263317;22;20466;-88
2022/10/24 09:38:18;;;;;;;6.97;2.80;;;19.80;99.90;;;;;;6266421;22;20530;-88
2022/10/24 09:40:51;;;;;;;3.60;2.60;;;19.70;99.90;;;;;;6294137;22;20497;-86
2022/10/24 09:43:24;;;;;;;4.73;2.60;;;19.90;99.90;;;;;;6267455;22;20396;-88
2022/10/24 09:46:02;;;;;;;5.63;2.10;;;19.90;99.90;;;;;;6272510;22;20472;-88
2022/10/24 09:49:07;;;;;;;4.93;3.33;;;19.90;99.90;;;;;;6295638;22;20489;-87
2022/10/24 09:51:49;;;;;;;3.83;2.50;;;19.80;99.90;;;;;;6266467;22;20362;-86
2022/10/24 09:54:20;;;;;;;2.77;2.57;;;19.90;99.90;;;;;;6264246;22;20381;-87
2022/10/24 09:57:13;;;;;;;4.70;3.23;;;19.90;99.90;;;;;;6260747;22;20464;-87
2022/10/24 09:59:57;;;;;;;5.93;2.37;;;20.10;99.90;;;;;;6290154;22;20343;-88
2022/10/24 10:02:33;;;;;;;5.40;3.40;;;20.10;99.90;;;;;;6260417;22;20384;-88
2022/10/24 10:05:03;;;;;;;4.33;3.00;;;20.20;99.90;;;;;;6266029;22;20580;-88
2022/10/24 10:07:36;;;;;;;4.93;3.07;;;20.10;99.90;;;;;;6267929;22;20410;-89
2022/10/24 10:10:25;;;;;;;3.20;2.57;;;20.10;99.90;;;;;;6270542;22;20398;-87
2022/10/24 10:13:01;;;;;;;9.00;3.57;;;20.20;99.90;;;;;;6298789;22;20384;-86
2022/10/24 10:15:35;;;;;;;2.77;2.57;;;20.30;99.90;;;;;;6298000;22;20383;-88
2022/10/24 10:18:27;;;;;;;6.10;2.60;;;20.40;99.90;;;;;;6263208;22;20404;-88
2022/10/24 10:21:17;;;;;;;6.83;2.27;;;20.60;99.90;;;;;;6266877;22;20403;-91
2022/10/24 10:23:50;;;;;;;5.67;2.90;;;20.80;99.90;;;;;;6264373;22;20741;-87
2022/10/24 10:26:26;;;;;;;4.00;3.33;;;20.80;99.90;;;;;;6267051;22;20415;-87
2022/10/24 10:29:00;;;;;;;3.10;2.80;;;20.90;99.90;;;;;;6266392;22;20350;-87
2022/10/24 10:32:05;;;;;;;4.43;3.57;;;21.10;99.90;;;;;;6266496;22;20383;-88
2022/10/24 10:34:38;;;;;;;4.77;2.90;;;21.30;99.90;;;;;;6140091;23;20450;-86
2022/10/24 10:37:32;;;;;;;7.10;2.90;;;21.20;99.90;;;;;;6249701;22;20405;-87
2022/10/24 10:40:32;;;;;;;5.67;2.40;;;21.30;99.90;;;;;;6267472;22;20421;-89
2022/10/24 10:43:37;;;;;;;2.53;2.23;;;21.40;99.90;;;;;;6270279;22;20388;-88
2022/10/24 10:46:10;;;;;;;7.40;3.40;;;21.60;99.90;;;;;;6295035;22;20393;-87
2022/10/24 10:48:50;;;;;;;4.90;2.50;;;21.60;99.90;;;;;;6267970;22;20458;-88
2022/10/24 10:51:41;;;;;;;7.10;3.13;;;21.60;99.90;;;;;;6266004;22;20408;-88
2022/10/24 10:54:26;;;;;;;4.93;3.13;;;21.60;99.90;;;;;;6270874;22;20651;-87
2022/10/24 10:57:07;;;;;;;4.13;2.83;;;21.50;99.90;;;;;;6270488;22;20758;-88
2022/10/24 11:00:17;;;;;;;6.63;3.10;;;21.50;99.90;;;;;;6269833;22;20770;-87
2022/10/24 11:03:04;;;;;;;6.50;3.87;;;21.60;99.90;;;;;;6269152;22;20457;-88
2022/10/24 11:05:39;;;;;;;3.10;2.40;;;21.50;99.90;;;;;;6269788;22;20394;-87
2022/10/24 11:08:18;;;;;;;6.20;2.33;;;21.50;99.90;;;;;;6297345;22;20422;-88
2022/10/24 11:11:11;;;;;;;3.70;2.30;;;21.50;99.90;;;;;;6272290;22;20438;-88
2022/10/24 11:13:51;;;;;;;5.00;2.80;;;21.60;99.90;;;;;;6269906;22;20397;-88
2022/10/24 11:16:24;;;;;;;4.73;2.47;;;21.80;99.90;;;;;;6271388;22;20367;-88
2022/10/24 11:19:07;;;;;;;4.60;2.50;;;21.90;99.90;;;;;;6298865;22;20344;-88
2022/10/24 11:21:38;;;;;;;6.53;2.67;;;21.80;99.90;;;;;;6271770;22;20417;-87
2022/10/24 11:24:16;;;;;;;5.70;2.40;;;21.90;99.90;;;;;;6299140;22;20363;-87
2022/10/24 11:26:58;;;;;;;4.13;2.10;;;21.80;99.90;;;;;;6273075;22;20425;-88
2022/10/24 11:32:58;;;;;;;9.70;2.63;;;21.60;99.90;;;;;;6361137;22;20354;-88
2022/10/24 11:35:39;;;;;;;4.60;2.60;;;21.40;99.90;;;;;;6188758;22;20451;-87
2022/10/24 11:38:17;;;;;;;8.03;3.20;;;21.30;99.90;;;;;;6244586;22;20428;-89
2022/10/24 11:40:55;;;;;;;4.23;3.43;;;21.20;99.90;;;;;;6198037;22;20428;-89
2022/10/24 11:43:37;;;;;;;6.90;3.90;;;21.10;99.90;;;;;;6188955;22;21926;-89
2022/10/24 11:54:34;;;;;;;7.60;3.40;;;21.10;99.90;;;;;;6224656;22;20478;-90
2022/10/24 12:00:04;;;;;;;9.40;2.90;;;21.20;99.90;;;;;;6256150;22;20414;-89
2022/10/24 12:08:05;;;;;;;5.03;2.70;;;21.30;99.90;;;;;;6229953;22;21245;-89
2022/10/24 12:19:04;;;;;;;4.30;3.83;;;21.40;99.90;;;;;;6231841;22;20430;-90
2022/10/24 12:35:34;;;;;;;3.43;3.13;;;21.20;99.90;;;;;;6179274;23;20354;-89
2022/10/24 12:46:22;;;;;;;3.60;2.80;;;21.40;99.90;;;;;;6264423;22;20454;-88
2022/10/24 12:51:36;;;;;;;3.37;3.00;;;21.30;99.90;;;;;;6225893;22;20481;-90
2022/10/24 13:10:44;;;;;;;4.73;3.27;;;21.10;99.90;;;;;;6231933;22;21521;-90
2022/10/24 13:43:35;;;;;;;9.37;4.13;;;19.90;99.90;;;;;;6201139;22;20424;-90
2022/10/24 16:20:11;;;;;;;4.87;4.37;;;17.70;99.90;;;;;;6190091;22;20399;-89
2022/10/24 16:38:45;;;;;;;12.20;6.33;;;17.40;99.90;;;;;;6255388;22;20418;-88
2022/10/24 16:41:17;;;;;;;5.50;4.50;;;17.40;99.90;;;;;;6272140;22;20424;-86
2022/10/24 16:43:46;;;;;;;8.17;4.97;;;17.40;99.90;;;;;;6270509;22;20442;-88
2022/10/24 16:46:18;;;;;;;6.33;5.70;;;17.30;99.90;;;;;;6272803;22;20396;-89
2022/10/24 16:48:47;;;;;;;8.30;4.93;;;17.40;99.90;;;;;;6268119;22;20400;-86
2022/10/24 16:51:18;;;;;;;8.10;5.73;;;17.40;99.90;;;;;;6267325;22;20404;-89
2022/10/24 16:53:45;;;;;;;7.80;6.40;;;17.50;99.90;;;;;;6269760;22;20400;-90
2022/10/24 16:56:14;;;;;;;6.60;6.00;;;17.50;99.90;;;;;;6271029;22;20394;-88
2022/10/24 16:58:42;;;;;;;7.97;6.47;;;17.40;99.90;;;;;;6271656;22;20438;-88
2022/10/24 17:01:17;;;;;;;10.70;6.00;;;17.60;99.90;;;;;;6295086;22;20439;-88
2022/10/24 17:03:49;;;;;;;8.33;6.63;;;17.50;99.90;;;;;;6272516;22;20376;-89
2022/10/24 17:06:30;;;;;;;6.37;5.77;;;17.50;99.90;;;;;;6267781;22;20391;-88
2022/10/24 17:09:12;;;;;;;12.50;7.50;;;17.40;99.90;;;;;;6251093;22;20478;-89
2022/10/24 17:11:43;;;;;;;8.07;7.23;;;17.60;99.90;;;;;;6272063;22;20663;-89
2022/10/24 17:14:26;;;;;;;8.50;7.43;;;17.50;99.90;;;;;;6249627;22;20396;-88
2022/10/24 17:16:53;;;;;;;11.67;6.70;;;17.40;99.90;;;;;;6264257;22;20446;-87
2022/10/24 17:19:24;;;;;;;12.03;7.77;;;17.20;99.90;;;;;;6268645;22;20489;-88
2022/10/24 17:21:51;;;;;;;8.40;7.67;;;17.00;99.90;;;;;;6276064;22;20432;-89
2022/10/24 17:24:21;;;;;;;12.80;8.87;;;16.90;99.90;;;;;;6273995;22;20450;-89
2022/10/24 17:26:50;;;;;;;10.93;6.63;;;16.80;99.90;;;;;;6268971;22;20416;-89
2022/10/24 17:29:28;;;;;;;13.47;7.73;;;16.90;99.90;;;;;;6269950;22;20739;-88
2022/10/24 17:31:59;;;;;;;15.63;7.23;;;17.00;99.90;;;;;;6296765;22;20410;-88
2022/10/24 17:34:28;;;;;;;10.60;7.60;;;17.40;99.90;;;;;;6243483;22;20388;-90
2022/10/24 17:37:00;;;;;;;8.00;7.20;;;17.70;99.90;;;;;;6268192;22;20384;-88
2022/10/24 17:39:31;;;;;;;10.20;8.20;;;17.80;99.90;;;;;;6263281;22;20470;-89
2022/10/24 17:41:59;;;;;;;17.70;9.03;;;17.70;99.90;;;;;;6264161;22;20465;-88
2022/10/24 17:44:27;;;;;;;9.33;7.10;;;17.80;99.90;;;;;;6242855;22;20396;-88
2022/10/24 17:46:56;;;;;;;9.07;8.00;;;17.80;99.90;;;;;;6265280;22;20392;-90
2022/10/24 17:49:25;;;;;;;8.00;7.20;;;17.70;99.90;;;;;;6267317;22;20383;-88
2022/10/24 17:51:52;;;;;;;9.73;8.67;;;17.60;99.90;;;;;;6292346;22;20384;-89
2022/10/24 17:54:20;;;;;;;8.13;6.97;;;17.30;99.90;;;;;;6291860;22;20453;-89
2022/10/24 17:56:49;;;;;;;10.70;9.20;;;17.20;99.90;;;;;;6271497;22;20424;-86
2022/10/24 17:59:16;;;;;;;9.80;8.80;;;17.00;99.90;;;;;;6273663;22;20458;-87
2022/10/24 18:01:43;;;;;;;10.77;8.47;;;16.80;99.90;;;;;;6274952;22;20424;-87
2022/10/24 18:04:10;;;;;;;9.70;8.00;;;16.70;99.90;;;;;;6298984;22;20414;-88
2022/10/24 18:06:43;;;;;;;11.80;8.30;;;16.60;99.90;;;;;;6293888;22;20479;-87
2022/10/24 18:09:11;;;;;;;8.63;7.83;;;16.50;99.90;;;;;;6268998;22;20380;-86
2022/10/24 18:12:05;;;;;;;9.77;8.77;;;16.50;99.90;;;;;;6294087;22;20369;-91
2022/10/24 18:14:39;;;;;;;9.10;8.20;;;16.30;99.90;;;;;;6269809;22;20444;-90
2022/10/24 18:17:20;;;;;;;11.40;8.50;;;16.30;99.90;;;;;;6271009;22;20387;-89
2022/10/24 18:19:54;;;;;;;8.00;7.20;;;16.30;99.90;;;;;;6245787;22;20431;-91
2022/10/24 18:22:52;;;;;;;13.40;8.90;;;16.20;99.90;;;;;;6281379;22;20472;-90
2022/10/24 18:25:30;;;;;;;7.70;7.00;;;16.40;99.90;;;;;;6270830;22;20394;-90
2022/10/24 18:28:08;;;;;;;15.63;8.47;;;16.20;99.90;;;;;;6251310;22;21375;-84
2022/10/24 18:30:40;;;;;;;10.50;8.00;;;16.20;99.90;;;;;;6232187;22;20447;-88
2022/10/24 18:33:21;;;;;;;9.47;7.90;;;16.20;99.90;;;;;;6250018;22;22044;-87
2022/10/24 18:44:24;;;;;;;11.43;7.73;;;16.90;99.90;;;;;;6288460;22;20488;-90
2022/10/24 18:47:19;;;;;;;8.43;7.60;;;16.90;99.90;;;;;;6301038;22;20424;-91
2022/10/24 18:52:55;;;;;;;12.73;8.67;;;17.00;99.90;;;;;;6284428;22;20413;-90
2022/10/24 19:14:29;;;;;;;12.50;8.50;;;17.00;99.90;;;;;;6293812;22;20548;-90
2022/10/24 19:32:55;;;;;;;8.00;7.23;;;16.80;99.90;;;;;;6237987;22;20460;-91
2022/10/24 19:35:40;;;;;;;9.23;7.53;;;16.60;99.90;;;;;;6228695;22;20399;-90
2022/10/24 19:38:09;;;;;;;9.87;7.77;;;16.70;99.90;;;;;;6244652;22;20383;-91
2022/10/24 20:04:05;;;;;;;7.20;6.50;;;16.80;99.90;;;;;;6150640;22;2215897;-87
2022/10/24 20:17:16;;;;;;;10.50;5.87;;;16.80;99.90;;;;;;6189056;22;20450;-88
2022/10/24 20:27:48;;;;;;;8.10;7.17;;;16.90;99.90;;;;;;6206843;22;20450;-90
2022/10/24 20:35:41;;;;;;;12.23;8.40;;;16.60;99.90;;;;;;6185789;22;20520;-88
2022/10/24 20:38:09;;;;;;;10.90;7.20;;;16.70;99.90;;;;;;6190447;22;20551;-89
2022/10/24 20:40:36;;;;;;;10.37;7.57;;;16.80;99.90;;;;;;6179870;23;20452;-87
2022/10/24 20:43:06;;;;;;;11.17;9.43;;;16.70;99.90;;;;;;6204020;23;20749;-88
2022/10/24 21:26:00;;;;;;;9.40;7.83;;;16.60;99.90;;;;;;6147936;22;20416;-89
2022/10/24 21:28:31;;;;;;;7.10;5.90;;;16.70;99.90;;;;;;6204882;23;20371;-87
2022/10/24 21:36:27;;;;;;;8.60;6.60;;;17.00;99.90;;;;;;6143721;23;20428;-87
2022/10/24 21:38:58;;;;;;;9.90;7.37;;;17.00;99.90;;;;;;6182452;23;20437;-90
2022/10/24 21:41:27;;;;;;;8.37;7.57;;;17.00;99.90;;;;;;6181443;23;20587;-91
2022/10/24 21:43:55;;;;;;;12.90;6.70;;;17.10;99.90;;;;;;6182316;22;20403;-89
2022/10/24 21:51:42;;;;;;;10.13;7.57;;;17.00;99.90;;;;;;6113852;23;21565;-91
2022/10/24 21:54:23;;;;;;;10.37;8.17;;;16.90;99.90;;;;;;6176656;23;20434;-90
2022/10/24 21:59:35;;;;;;;8.00;7.20;;;16.60;99.90;;;;;;6131018;23;20420;-88
2022/10/24 22:02:18;;;;;;;8.47;7.63;;;16.70;99.90;;;;;;6164744;23;20460;-91
2022/10/24 22:04:48;;;;;;;11.47;7.70;;;16.60;99.90;;;;;;6132507;23;20415;-91
2022/10/24 22:07:19;;;;;;;8.17;7.37;;;16.80;99.90;;;;;;6178341;23;20410;-91
2022/10/24 22:09:49;;;;;;;9.43;7.50;;;16.80;99.90;;;;;;6179244;23;20415;-90
2022/10/24 22:12:18;;;;;;;7.93;6.87;;;16.80;99.90;;;;;;6164571;23;20436;-89
2022/10/24 22:36:28;;;;;;;6.40;4.57;;;16.70;99.90;;;;;;6161030;22;20484;-90
2022/10/24 22:41:32;;;;;;;4.00;3.50;;;16.70;99.90;;;;;;6168189;22;20756;-88
2022/10/24 22:54:41;;;;;;;4.77;3.97;;;16.30;99.90;;;;;;6164057;22;20441;-89
2022/10/24 22:57:09;;;;;;;7.53;4.57;;;16.20;99.90;;;;;;6151064;23;20425;-89
2022/10/24 22:59:38;;;;;;;7.23;4.60;;;16.20;99.90;;;;;;6176162;23;20429;-90
2022/10/24 23:02:20;;;;;;;6.53;4.70;;;16.20;99.90;;;;;;6178912;23;20341;-91
2022/10/24 23:05:12;;;;;;;6.50;5.60;;;16.20;99.90;;;;;;6206432;23;20381;-90
2022/10/24 23:08:06;;;;;;;3.43;3.13;;;16.20;99.90;;;;;;6199695;23;20444;-89
2022/10/24 23:10:35;;;;;;;5.90;4.90;;;16.00;99.90;;;;;;6206547;22;20361;-88
2022/10/24 23:13:03;;;;;;;5.53;4.10;;;16.00;99.90;;;;;;6216313;23;20441;-88
2022/10/24 23:15:34;;;;;;;6.70;4.50;;;15.80;99.90;;;;;;6241943;22;20390;-87
2022/10/24 23:18:09;;;;;;;8.05;4.05;;;15.60;99.90;;;;;;6216826;22;20378;-88
2022/10/24 23:20:50;;;;;;;4.93;4.53;;;15.50;99.90;;;;;;6206097;22;20195;-90
2022/10/24 23:23:33;;;;;;;4.40;3.80;;;15.40;99.90;;;;;;6236859;22;20777;-91
2022/10/24 23:26:27;;;;;;;4.60;4.20;;;15.40;99.90;;;;;;6207377;22;20391;-90
2022/10/24 23:29:25;;;;;;;5.47;4.97;;;15.30;99.90;;;;;;6236343;23;20441;-89
2022/10/24 23:31:53;;;;;;;4.85;4.32;;;15.20;99.90;;;;;;6230372;23;20212;-90
2022/10/24 23:34:20;;;;;;;7.90;5.90;;;15.10;99.90;;;;;;6205060;23;20559;-89
2022/10/24 23:36:49;;;;;;;6.30;4.20;;;15.00;99.90;;;;;;6152546;23;20451;-89
2022/10/24 23:39:25;;;;;;;5.35;4.50;;;14.80;99.90;;;;;;6142438;23;20166;-91
2022/10/24 23:42:05;;;;;;;4.88;4.20;;;14.80;99.90;;;;;;6168416;23;20212;-90
2022/10/24 23:44:36;;;;;;;6.38;4.40;;;14.70;99.90;;;;;;6170509;23;20192;-90
2022/10/24 23:50:06;;;;;;;7.88;4.85;;;14.50;99.90;;;;;;6197690;23;20209;-90
